Time;durP1;ratioP1;P1;durP2;ratioP2;P2;SDS_P1;SDS_P2;PMS_P1;PMS_P2;Temp;Humidity;BMP_temperature;BMP_pressure;BME280_temperature;BME280_humidity;BME280_pressure;Samples;Min_cycle;Max_cycle;Signal;HPM_P1;HPM_P2
2023/06/26 00:01:12;;;;;;;7.67;5.00;;;;;;;23.08;69.63;101247.41;5036270;28;20041;-72
2023/06/26 00:03:38;;;;;;;8.20;5.93;;;;;;;23.00;71.04;101248.75;5052475;28;20479;-71
2023/06/26 00:06:03;;;;;;;7.53;5.10;;;;;;;22.94;71.33;101243.44;5058789;28;20044;-72
2023/06/26 00:08:29;;;;;;;8.03;5.27;;;;;;;22.71;72.56;101249.38;5051365;28;20048;-72
2023/06/26 00:10:54;;;;;;;7.20;5.13;;;;;;;22.54;74.01;101243.94;5039711;28;20044;-71
2023/06/26 00:13:20;;;;;;;17.13;5.43;;;;;;;22.55;74.53;101247.56;5031608;28;20482;-72
2023/06/26 00:15:45;;;;;;;10.15;5.82;;;;;;;22.40;75.75;101250.22;5038518;28;20108;-72
2023/06/26 00:18:11;;;;;;;13.03;6.20;;;;;;;22.30;76.95;101250.94;5049722;28;20037;-71
2023/06/26 00:20:36;;;;;;;8.53;5.00;;;;;;;22.21;77.36;101246.97;5058611;28;20377;-71
2023/06/26 00:23:04;;;;;;;10.43;5.27;;;;;;;22.20;77.14;101248.03;5035241;28;20116;-71
2023/06/26 00:25:29;;;;;;;10.18;5.15;;;;;;;22.13;77.21;101254.94;5053476;28;20033;-71
2023/06/26 00:27:54;;;;;;;10.23;5.20;;;;;;;22.07;77.24;101258.78;5059336;28;20097;-72
2023/06/26 00:30:20;;;;;;;10.03;4.97;;;;;;;22.01;77.44;101263.47;5051380;28;20056;-73
2023/06/26 00:32:45;;;;;;;12.37;5.00;;;;;;;21.91;77.83;101263.34;5057940;28;20590;-72
2023/06/26 00:35:11;;;;;;;12.37;5.27;;;;;;;21.87;78.16;101256.59;5052466;28;20036;-72
2023/06/26 00:37:36;;;;;;;9.90;4.77;;;;;;;21.84;78.99;101264.66;5055860;28;20025;-72
2023/06/26 00:40:05;;;;;;;9.35;4.80;;;;;;;21.80;78.99;101258.78;5052063;28;20952;-72
2023/06/26 00:42:30;;;;;;;10.85;5.57;;;;;;;21.73;79.31;101274.00;5053156;28;20036;-72
2023/06/26 00:44:55;;;;;;;8.70;4.50;;;;;;;21.71;79.94;101265.06;5037350;28;20042;-72
2023/06/26 00:47:21;;;;;;;11.40;5.30;;;;;;;21.65;80.50;101266.06;5054698;28;20036;-71
2023/06/26 00:49:47;;;;;;;8.23;4.77;;;;;;;21.64;81.13;101269.94;5054532;28;20151;-72
2023/06/26 00:52:12;;;;;;;9.30;4.35;;;;;;;21.56;81.53;101267.63;5054999;28;20025;-72
2023/06/26 00:54:38;;;;;;;11.68;4.43;;;;;;;21.55;81.75;101263.16;5006067;28;20060;-72
2023/06/26 00:57:04;;;;;;;11.15;4.60;;;;;;;21.51;81.88;101270.34;5031437;28;20126;-71
2023/06/26 00:59:29;;;;;;;12.30;4.33;;;;;;;21.43;81.79;101271.63;5034390;28;20037;-72
2023/06/26 01:01:55;;;;;;;12.73;4.30;;;;;;;21.37;81.58;101272.66;5030257;28;20456;-70
2023/06/26 01:04:20;;;;;;;11.50;4.60;;;;;;;21.33;81.48;101273.41;5033510;28;20037;-69
2023/06/26 01:06:51;;;;;;;19.07;4.27;;;;;;;21.30;82.00;101276.75;5015749;28;20087;-70
2023/06/26 01:09:22;;;;;;;16.35;5.85;;;;;;;21.17;83.11;101274.31;5014393;28;20070;-70
2023/06/26 01:11:48;;;;;;;25.02;5.40;;;;;;;21.07;83.92;101272.22;5037010;28;20045;-70
2023/06/26 01:14:14;;;;;;;20.80;6.13;;;;;;;21.07;84.65;101275.00;5028434;28;20037;-70
2023/06/26 01:16:47;;;;;;;21.42;4.95;;;;;;;21.03;85.48;101275.78;5032180;28;20032;-71
2023/06/26 01:19:26;;;;;;;23.67;5.38;;;;;;;21.08;85.68;101273.06;5033487;28;20029;-70
2023/06/26 01:22:04;;;;;;;19.52;5.43;;;;;;;21.07;86.39;101282.53;5034110;28;20546;-70
2023/06/26 01:24:36;;;;;;;22.20;5.35;;;;;;;21.02;86.85;101279.66;5026854;28;20509;-70
2023/06/26 01:27:03;;;;;;;26.00;5.93;;;;;;;21.04;87.26;101274.69;5030312;28;20392;-71
2023/06/26 01:29:31;;;;;;;21.38;5.10;;;;;;;21.02;87.56;101271.31;5035473;28;20448;-71
2023/06/26 01:31:57;;;;;;;18.98;5.32;;;;;;;21.01;87.90;101269.59;5030635;28;20033;-71
2023/06/26 01:34:23;;;;;;;23.75;5.47;;;;;;;20.95;89.14;101270.63;5026734;28;20033;-71
2023/06/26 01:36:49;;;;;;;17.10;5.57;;;;;;;20.92;89.56;101265.56;5029660;28;20061;-70
2023/06/26 01:39:16;;;;;;;21.40;5.50;;;;;;;20.88;89.67;101264.34;5033013;28;20064;-70
2023/06/26 01:41:43;;;;;;;21.35;5.60;;;;;;;20.79;90.32;101277.00;5033973;28;20017;-70
2023/06/26 01:44:24;;;;;;;21.20;6.45;;;;;;;20.79;90.59;101265.88;5030984;28;20504;-70
2023/06/26 01:47:02;;;;;;;29.10;5.75;;;;;;;20.77;91.02;101276.44;5021630;28;20044;-70
2023/06/26 01:49:54;;;;;;;24.00;5.80;;;;;;;20.80;90.84;101267.59;5027285;28;20037;-71
2023/06/26 01:52:40;;;;;;;19.00;5.93;;;;;;;20.83;91.10;101284.63;5026158;28;20029;-70
2023/06/26 01:55:10;;;;;;;41.50;7.32;;;;;;;20.83;91.15;101262.34;5043994;28;20416;-71
2023/06/26 01:57:36;;;;;;;15.85;5.57;;;;;;;20.84;91.38;101271.53;5034568;28;20515;-70
2023/06/26 02:00:03;;;;;;;21.55;6.43;;;;;;;20.76;92.06;101274.75;5049547;28;20028;-71
2023/06/26 02:02:29;;;;;;;28.17;7.35;;;;;;;20.77;92.54;101274.50;5051259;28;20032;-70
2023/06/26 02:04:56;;;;;;;31.77;6.80;;;;;;;20.76;92.93;101280.31;5049500;28;20028;-70
2023/06/26 02:07:22;;;;;;;30.00;6.75;;;;;;;20.72;93.03;101279.13;5032878;28;20488;-70
2023/06/26 02:09:48;;;;;;;36.55;7.55;;;;;;;20.65;93.14;101270.94;5052274;28;20094;-70
2023/06/26 02:12:13;;;;;;;23.70;6.73;;;;;;;20.60;93.02;101273.63;5052551;28;20412;-70
2023/06/26 02:14:39;;;;;;;26.33;6.73;;;;;;;20.54;93.56;101287.75;5046300;28;20037;-71
2023/06/26 02:17:08;;;;;;;26.80;6.87;;;;;;;20.44;94.24;101288.38;5052342;28;20028;-69
2023/06/26 02:19:34;;;;;;;25.85;6.55;;;;;;;20.47;94.40;101295.38;5049685;28;20639;-70
2023/06/26 02:22:00;;;;;;;24.53;6.90;;;;;;;20.42;94.94;101298.09;5031383;28;20076;-70
2023/06/26 02:24:29;;;;;;;;;;;;;;;20.39;95.37;101306.94;5047958;28;20032;-71
2023/06/26 02:26:55;;;;;;;34.50;7.68;;;;;;;20.36;95.83;101294.38;5057587;28;19920;-70
2023/06/26 02:29:21;;;;;;;21.60;7.87;;;;;;;20.39;96.03;101302.19;5053176;28;20033;-70
2023/06/26 02:31:48;;;;;;;21.90;6.83;;;;;;;20.31;96.49;101297.06;5026811;28;20060;-71
2023/06/26 02:34:17;;;;;;;27.10;7.47;;;;;;;20.34;96.54;101301.28;5051899;28;20020;-71
2023/06/26 02:36:42;;;;;;;28.02;7.53;;;;;;;20.33;96.91;101303.22;5038062;28;20028;-70
2023/06/26 02:39:08;;;;;;;30.50;6.67;;;;;;;20.29;97.56;101299.25;5056745;28;20077;-70
2023/06/26 02:41:34;;;;;;;31.70;7.63;;;;;;;20.24;98.16;101298.31;5058719;28;20372;-71
2023/06/26 02:44:00;;;;;;;34.78;7.63;;;;;;;20.28;98.09;101305.06;5056669;28;20037;-70
2023/06/26 02:46:25;;;;;;;31.03;6.57;;;;;;;20.29;97.77;101295.63;5060087;28;20032;-70
2023/06/26 02:48:51;;;;;;;23.30;6.50;;;;;;;20.28;97.91;101291.97;5054843;28;20092;-70
2023/06/26 02:51:17;;;;;;;21.88;7.65;;;;;;;20.21;98.64;101304.34;5052766;28;20021;-70
2023/06/26 02:53:42;;;;;;;27.23;7.00;;;;;;;20.27;98.29;101300.59;5038510;28;20040;-71
2023/06/26 02:56:08;;;;;;;33.23;7.33;;;;;;;20.28;97.97;101302.28;5063246;28;20057;-72
2023/06/26 02:58:34;;;;;;;20.48;6.63;;;;;;;20.33;97.69;101313.50;5052297;28;20036;-71
2023/06/26 03:00:59;;;;;;;28.90;7.20;;;;;;;20.34;97.52;101306.84;5057638;28;20032;-71
2023/06/26 03:03:25;;;;;;;26.60;7.03;;;;;;;20.38;97.03;101308.06;5052570;28;20029;-71
2023/06/26 03:05:51;;;;;;;25.88;8.02;;;;;;;20.24;97.41;101306.66;5055094;28;20053;-71
2023/06/26 03:08:17;;;;;;;22.90;6.47;;;;;;;20.21;97.34;101301.56;5054996;28;20028;-71
2023/06/26 03:10:43;;;;;;;29.00;7.88;;;;;;;20.16;97.49;101307.91;5057970;28;20061;-72
2023/06/26 03:13:09;;;;;;;18.57;6.13;;;;;;;20.14;97.36;101310.09;5056771;28;20528;-71
2023/06/26 03:15:36;;;;;;;18.70;5.88;;;;;;;20.12;97.17;101312.25;5038347;28;20048;-71
2023/06/26 03:18:02;;;;;;;28.80;6.70;;;;;;;20.09;97.13;101325.81;5051494;28;20071;-71
2023/06/26 03:20:27;;;;;;;30.57;6.90;;;;;;;20.04;97.22;101325.69;5033979;28;20036;-72
2023/06/26 03:22:52;;;;;;;31.03;6.27;;;;;;;20.06;96.85;101323.53;5054749;28;20040;-71
2023/06/26 03:25:18;;;;;;;21.10;5.93;;;;;;;20.08;96.27;101329.72;5036308;28;20489;-72
2023/06/26 03:27:43;;;;;;;19.10;6.63;;;;;;;20.00;96.20;101325.34;5042396;28;20036;-71
2023/06/26 03:30:10;;;;;;;17.43;5.70;;;;;;;19.99;96.04;101326.44;5055823;28;20033;-71
2023/06/26 03:32:35;;;;;;;24.80;5.68;;;;;;;19.96;95.77;101331.66;5052128;28;20040;-71
2023/06/26 03:35:03;;;;;;;30.70;6.23;;;;;;;19.94;95.11;101333.81;5037692;28;20036;-72
2023/06/26 03:37:28;;;;;;;16.83;5.25;;;;;;;19.87;94.93;101349.81;5053850;28;20021;-71
2023/06/26 03:39:54;;;;;;;16.17;5.30;;;;;;;19.87;95.23;101349.81;5046394;28;20074;-71
2023/06/26 03:42:19;;;;;;;26.60;6.80;;;;;;;19.84;95.54;101341.97;5055430;28;20053;-70
2023/06/26 03:44:45;;;;;;;18.57;5.83;;;;;;;19.84;95.28;101341.97;5058188;28;20469;-71
2023/06/26 03:47:10;;;;;;;20.43;5.60;;;;;;;19.85;94.51;101346.44;5036057;28;20021;-72
2023/06/26 03:49:36;;;;;;;19.97;5.30;;;;;;;19.83;94.35;101349.47;5052651;28;20020;-72
2023/06/26 03:52:01;;;;;;;16.60;4.87;;;;;;;19.78;94.20;101340.16;5055189;28;20404;-71
2023/06/26 03:54:26;;;;;;;23.90;5.87;;;;;;;19.79;94.01;101358.56;5045548;28;20029;-73
2023/06/26 03:56:52;;;;;;;18.80;5.17;;;;;;;19.77;93.92;101358.78;5038049;28;20041;-71
2023/06/26 03:59:17;;;;;;;15.03;4.97;;;;;;;19.79;92.98;101355.78;5053118;28;20037;-71
2023/06/26 04:01:43;;;;;;;15.83;4.83;;;;;;;19.72;93.28;101363.38;5050538;28;20024;-72
2023/06/26 04:04:08;;;;;;;20.57;5.57;;;;;;;19.69;93.31;101370.28;5054923;28;20033;-72
2023/06/26 04:06:34;;;;;;;20.83;5.32;;;;;;;19.72;92.00;101367.03;5030178;28;20025;-72
2023/06/26 04:09:01;;;;;;;19.30;4.93;;;;;;;19.68;91.90;101357.47;5051276;28;20033;-72
2023/06/26 04:11:26;;;;;;;15.18;4.20;;;;;;;19.72;91.33;101374.50;5038392;28;20029;-71
2023/06/26 04:13:52;;;;;;;17.53;6.17;;;;;;;19.63;91.44;101370.44;5033002;28;20035;-72
2023/06/26 04:16:17;;;;;;;21.67;4.20;;;;;;;19.62;91.08;101385.38;5035104;28;20389;-72
2023/06/26 04:18:43;;;;;;;19.27;4.27;;;;;;;19.64;90.51;101386.84;5049057;28;20166;-72
2023/06/26 04:21:13;;;;;;;20.67;5.20;;;;;;;19.62;90.80;101385.38;5041619;28;20036;-72
2023/06/26 04:23:40;;;;;;;15.32;4.38;;;;;;;19.60;90.47;101382.00;5054429;28;20036;-72
2023/06/26 04:26:08;;;;;;;17.38;4.80;;;;;;;19.62;90.37;101399.28;5015241;28;20507;-72
2023/06/26 04:28:34;;;;;;;21.77;5.47;;;;;;;19.59;90.43;101402.56;5054100;28;20029;-72
2023/06/26 04:31:05;;;;;;;20.50;4.70;;;;;;;19.72;90.00;101405.09;5052585;28;20044;-73
2023/06/26 04:33:31;;;;;;;14.38;4.78;;;;;;;19.89;88.45;101406.88;5030497;28;20047;-71
2023/06/26 04:35:56;;;;;;;20.43;4.77;;;;;;;19.77;88.75;101407.97;5034424;28;20032;-72
2023/06/26 04:38:22;;;;;;;24.58;5.47;;;;;;;19.73;88.58;101418.75;5054783;28;20499;-71
2023/06/26 04:40:48;;;;;;;19.93;4.73;;;;;;;19.77;88.57;101413.53;5057277;28;20047;-72
2023/06/26 04:43:14;;;;;;;19.75;5.35;;;;;;;19.75;87.94;101418.50;5059417;28;20099;-72
2023/06/26 04:45:39;;;;;;;35.60;5.63;;;;;;;19.73;87.97;101421.53;5053803;28;20135;-72
2023/06/26 04:48:05;;;;;;;23.83;4.70;;;;;;;19.65;88.63;101421.06;5052803;28;20273;-71
2023/06/26 04:50:33;;;;;;;17.63;4.63;;;;;;;19.67;88.66;101421.66;5053667;28;20075;-73
2023/06/26 04:52:59;;;;;;;14.10;4.53;;;;;;;19.74;88.35;101427.94;5029293;28;20093;-72
2023/06/26 04:55:25;;;;;;;14.10;3.93;;;;;;;19.69;88.79;101427.84;5049850;28;20048;-72
2023/06/26 04:57:51;;;;;;;16.38;4.90;;;;;;;19.76;88.38;101434.09;5045060;28;20037;-72
2023/06/26 05:00:17;;;;;;;19.35;4.47;;;;;;;19.82;88.16;101430.34;5030314;28;20051;-71
2023/06/26 05:02:42;;;;;;;21.58;5.18;;;;;;;19.88;88.12;101435.78;5049318;28;20396;-71
2023/06/26 05:05:08;;;;;;;23.57;4.33;;;;;;;19.92;87.94;101437.00;5055467;28;20032;-72
2023/06/26 05:07:33;;;;;;;12.77;4.53;;;;;;;20.01;88.13;101449.41;5048708;28;20029;-72
2023/06/26 05:10:00;;;;;;;22.43;5.17;;;;;;;20.13;87.62;101438.31;5043304;28;20503;-73
2023/06/26 05:12:26;;;;;;;21.23;4.78;;;;;;;20.15;87.10;101444.47;5047511;28;20033;-72
2023/06/26 05:14:51;;;;;;;26.23;5.10;;;;;;;20.47;86.08;101445.69;5057147;28;20035;-72
2023/06/26 05:17:17;;;;;;;11.93;4.07;;;;;;;21.24;82.00;101454.19;5048640;28;20124;-72
2023/06/26 05:19:42;;;;;;;20.23;5.00;;;;;;;21.68;79.59;101446.88;5050034;28;20134;-72
2023/06/26 05:22:08;;;;;;;17.27;5.37;;;;;;;22.46;75.57;101451.06;5042682;28;20052;-72
2023/06/26 05:24:35;;;;;;;12.98;4.03;;;;;;;23.08;71.85;101463.53;5045860;28;20033;-72
2023/06/26 05:27:01;;;;;;;20.17;4.63;;;;;;;23.92;69.10;101475.75;5044838;28;20035;-72
2023/06/26 05:29:27;;;;;;;14.02;3.67;;;;;;;24.02;65.66;101468.25;5042134;28;20469;-71
2023/06/26 05:31:56;;;;;;;9.18;3.20;;;;;;;24.00;64.27;101478.88;5026072;28;20140;-72
2023/06/26 05:34:22;;;;;;;7.18;2.50;;;;;;;24.31;62.00;101485.50;5044962;28;20107;-72
2023/06/26 05:36:50;;;;;;;3.58;2.42;;;;;;;23.12;65.27;101475.88;5043728;28;20029;-71
2023/06/26 05:39:16;;;;;;;5.43;2.75;;;;;;;22.86;67.43;101490.69;5043710;28;20025;-71
2023/06/26 05:41:46;;;;;;;9.67;2.60;;;;;;;23.75;64.46;101489.88;5052762;28;20389;-72
2023/06/26 05:44:11;;;;;;;4.90;2.80;;;;;;;23.34;66.10;101500.97;5042491;28;20060;-72
2023/06/26 05:46:37;;;;;;;12.50;3.03;;;;;;;24.72;63.98;101504.22;5032555;28;20118;-72
2023/06/26 05:49:03;;;;;;;10.18;3.10;;;;;;;24.91;63.04;101497.84;5048211;28;20032;-73
2023/06/26 05:51:29;;;;;;;13.38;3.97;;;;;;;24.64;64.87;101516.00;5025291;28;20048;-73
2023/06/26 05:53:54;;;;;;;11.33;4.20;;;;;;;23.64;66.93;101518.88;5041872;28;20029;-72
2023/06/26 05:56:20;;;;;;;15.60;3.58;;;;;;;23.11;70.18;101518.88;5047510;28;20296;-72
2023/06/26 05:58:49;;;;;;;13.23;4.05;;;;;;;23.03;69.47;101519.38;5057857;28;20036;-72
2023/06/26 06:01:15;;;;;;;11.07;3.42;;;;;;;22.29;69.08;101517.28;5031034;28;20036;-73
2023/06/26 06:03:40;;;;;;;5.80;2.70;;;;;;;22.10;68.97;101520.63;5052283;28;20029;-72
2023/06/26 06:06:06;;;;;;;17.87;3.43;;;;;;;22.26;68.37;101512.19;5049065;28;20388;-72
2023/06/26 06:08:31;;;;;;;11.50;3.07;;;;;;;22.10;67.39;101515.88;5052810;28;20060;-71
2023/06/26 06:10:57;;;;;;;9.90;2.80;;;;;;;21.84;67.96;101515.75;5051446;28;20270;-72
2023/06/26 06:13:22;;;;;;;9.77;2.83;;;;;;;21.87;68.13;101521.66;5049267;28;20036;-71
2023/06/26 06:15:47;;;;;;;15.40;2.30;;;;;;;21.76;68.38;101525.38;5034298;28;20039;-71
2023/06/26 06:18:13;;;;;;;11.27;2.50;;;;;;;21.78;67.28;101531.53;5034248;28;20466;-71
2023/06/26 06:20:38;;;;;;;4.40;1.80;;;;;;;22.17;66.41;101547.25;5049709;28;20096;-71
2023/06/26 06:23:03;;;;;;;7.67;2.53;;;;;;;22.96;61.95;101548.63;5051807;28;20033;-72
2023/06/26 06:25:29;;;;;;;8.30;2.30;;;;;;;23.81;57.82;101555.13;5051949;28;20024;-71
2023/06/26 06:27:54;;;;;;;10.67;1.97;;;;;;;24.81;56.68;101559.47;5055614;28;20563;-72
2023/06/26 06:30:20;;;;;;;7.23;1.80;;;;;;;24.96;54.68;101564.34;5051810;28;20025;-72
2023/06/26 06:32:50;;;;;;;8.20;2.40;;;;;;;25.25;53.03;101566.44;5050618;28;20108;-72
2023/06/26 06:35:16;;;;;;;6.97;2.33;;;;;;;24.92;53.21;101568.78;5034027;28;20133;-71
2023/06/26 06:37:41;;;;;;;6.80;2.22;;;;;;;23.72;56.37;101581.91;5039958;28;20053;-71
2023/06/26 06:40:08;;;;;;;9.00;2.57;;;;;;;23.28;58.63;101584.00;5047737;28;20029;-72
2023/06/26 06:42:34;;;;;;;7.53;1.88;;;;;;;23.40;57.69;101581.88;5052852;28;20053;-72
2023/06/26 06:45:00;;;;;;;10.10;2.27;;;;;;;22.76;59.78;101577.16;5052244;28;20028;-71
2023/06/26 06:47:26;;;;;;;8.38;2.55;;;;;;;22.80;60.36;101589.53;5053176;28;20044;-71
2023/06/26 06:49:51;;;;;;;12.47;2.17;;;;;;;23.51;57.55;101596.81;5054214;28;20105;-71
2023/06/26 06:52:17;;;;;;;8.57;1.83;;;;;;;24.20;56.62;101602.25;5059104;28;20459;-72
2023/06/26 06:54:58;;;;;;;7.17;1.73;;;;;;;23.92;54.98;101601.72;5042686;28;20588;-71
2023/06/26 06:57:24;;;;;;;14.85;2.38;;;;;;;24.46;54.40;101614.47;5034984;28;21721;-71
2023/06/26 06:59:50;;;;;;;14.23;2.17;;;;;;;25.42;53.42;101611.06;5044112;28;20037;-71
2023/06/26 07:02:19;;;;;;;9.55;2.22;;;;;;;24.40;53.48;101621.16;5029325;28;20067;-71
2023/06/26 07:04:44;;;;;;;7.30;2.00;;;;;;;24.36;53.98;101622.78;5047692;28;20028;-71
2023/06/26 07:07:10;;;;;;;8.13;2.07;;;;;;;23.86;56.20;101627.94;5050865;28;20026;-71
2023/06/26 07:09:38;;;;;;;7.87;2.00;;;;;;;24.08;55.33;101629.59;5050571;28;20017;-71
2023/06/26 07:12:04;;;;;;;12.32;2.17;;;;;;;24.28;53.90;101626.13;5048843;28;20110;-71
2023/06/26 07:14:29;;;;;;;7.65;1.95;;;;;;;23.96;55.13;101622.47;5056335;28;20055;-71
2023/06/26 07:16:54;;;;;;;8.37;2.07;;;;;;;23.58;57.04;101622.63;5027623;28;20033;-72
2023/06/26 07:19:20;;;;;;;15.83;2.20;;;;;;;24.17;54.50;101624.34;5056903;28;20349;-71
2023/06/26 07:21:46;;;;;;;11.37;2.40;;;;;;;24.48;53.30;101627.09;5057985;28;20020;-72
2023/06/26 07:24:11;;;;;;;11.63;2.40;;;;;;;24.76;52.66;101642.72;5059426;28;20040;-72
2023/06/26 07:26:37;;;;;;;10.77;1.90;;;;;;;25.30;51.17;101652.56;5059991;28;20050;-71
2023/06/26 07:29:02;;;;;;;6.80;1.73;;;;;;;24.94;50.93;101651.53;5053783;28;20028;-71
2023/06/26 07:31:28;;;;;;;9.77;2.07;;;;;;;25.24;50.37;101654.44;5036108;28;20070;-71
2023/06/26 07:33:53;;;;;;;12.50;2.03;;;;;;;25.25;50.24;101650.59;5041722;28;20308;-71
2023/06/26 07:36:19;;;;;;;4.93;1.80;;;;;;;25.08;51.03;101654.69;5039432;28;20028;-71
2023/06/26 07:38:44;;;;;;;8.07;1.77;;;;;;;25.34;50.92;101656.50;5032922;28;20062;-71
2023/06/26 07:41:09;;;;;;;9.73;2.53;;;;;;;25.23;50.72;101664.00;5043272;28;20040;-72
2023/06/26 07:43:35;;;;;;;7.87;2.43;;;;;;;24.98;51.78;101655.44;5052215;28;20108;-71
2023/06/26 07:46:00;;;;;;;6.43;1.63;;;;;;;25.27;52.07;101658.69;5036416;28;20044;-72
2023/06/26 07:48:25;;;;;;;8.40;1.87;;;;;;;24.97;51.50;101659.38;5036598;28;20491;-71
2023/06/26 07:50:51;;;;;;;8.00;2.07;;;;;;;24.90;51.96;101660.72;5062093;28;20139;-71
2023/06/26 07:53:16;;;;;;;4.60;1.50;;;;;;;24.48;52.51;101654.28;5055587;28;20086;-71
2023/06/26 07:55:42;;;;;;;7.70;1.77;;;;;;;24.71;53.40;101668.75;5036375;28;20306;-71
2023/06/26 07:58:08;;;;;;;8.63;2.13;;;;;;;24.26;53.32;101678.72;5049994;28;20037;-71
2023/06/26 08:00:33;;;;;;;6.60;1.87;;;;;;;24.41;52.68;101682.53;5036896;28;20044;-71
2023/06/26 08:02:59;;;;;;;4.23;1.87;;;;;;;24.35;52.69;101678.00;5038031;28;20017;-71
2023/06/26 08:05:24;;;;;;;4.10;1.43;;;;;;;24.23;52.85;101673.69;5054062;28;20016;-71
2023/06/26 08:07:49;;;;;;;15.00;1.90;;;;;;;24.41;53.58;101681.66;5034124;28;20041;-71
2023/06/26 08:10:15;;;;;;;13.77;2.27;;;;;;;24.25;53.12;101672.31;5051707;28;20025;-71
2023/06/26 08:12:42;;;;;;;11.73;1.93;;;;;;;24.26;53.62;101701.13;5054150;28;20423;-71
2023/06/26 08:15:09;;;;;;;9.27;1.95;;;;;;;23.85;54.84;101690.66;5058403;28;20029;-71
2023/06/26 08:17:35;;;;;;;;;;;;;;;23.65;55.68;101687.63;5059244;28;20021;-72
2023/06/26 08:20:01;;;;;;;10.82;2.67;;;;;;;24.10;54.74;101688.09;5040351;28;19923;-71
2023/06/26 08:22:26;;;;;;;14.43;2.33;;;;;;;24.03;54.56;101687.50;5054610;28;20052;-72
2023/06/26 08:24:51;;;;;;;7.17;2.17;;;;;;;23.53;55.06;101692.53;5051290;28;20671;-72
2023/06/26 08:27:17;;;;;;;11.03;2.00;;;;;;;24.06;54.85;101700.97;5053606;28;20027;-71
2023/06/26 08:29:42;;;;;;;7.77;2.43;;;;;;;23.68;55.37;101704.72;5040171;28;20115;-72
2023/06/26 08:32:07;;;;;;;8.80;1.83;;;;;;;23.70;55.03;101696.06;5035066;28;20060;-72
2023/06/26 08:34:33;;;;;;;9.03;2.20;;;;;;;23.39;56.11;101705.22;5055284;28;20060;-71
2023/06/26 08:36:58;;;;;;;16.37;2.23;;;;;;;23.33;57.35;101698.72;5056569;28;20496;-72
2023/06/26 08:39:24;;;;;;;8.13;1.83;;;;;;;23.44;56.71;101696.88;5052612;28;20048;-71
2023/06/26 08:41:49;;;;;;;7.05;1.90;;;;;;;23.60;56.25;101713.59;5051658;28;20123;-70
2023/06/26 08:44:15;;;;;;;23.03;3.13;;;;;;;23.46;55.84;101708.63;5058847;28;20084;-71
2023/06/26 08:46:41;;;;;;;6.30;2.33;;;;;;;23.54;55.19;101713.78;5056489;28;20472;-71
2023/06/26 08:49:24;;;;;;;8.35;1.77;;;;;;;23.84;55.38;101716.94;5057384;28;20029;-71
2023/06/26 08:51:55;;;;;;;7.40;1.75;;;;;;;23.67;54.90;101713.38;5048972;28;20085;-72
2023/06/26 08:54:30;;;;;;;6.72;1.90;;;;;;;23.68;54.78;101715.91;5035861;28;20119;-71
2023/06/26 08:56:57;;;;;;;5.20;1.73;;;;;;;23.75;54.24;101724.13;5056905;28;20059;-71
2023/06/26 08:59:23;;;;;;;6.40;1.83;;;;;;;23.33;55.40;101723.88;5055237;28;20391;-72
2023/06/26 09:01:49;;;;;;;14.13;2.53;;;;;;;23.07;56.25;101713.44;5056858;28;20025;-71
2023/06/26 09:04:15;;;;;;;6.22;1.70;;;;;;;22.89;57.38;101719.28;5057343;28;20025;-71
2023/06/26 09:06:41;;;;;;;8.68;2.13;;;;;;;22.75;59.07;101722.72;5034864;28;20035;-72
2023/06/26 09:09:07;;;;;;;9.00;1.50;;;;;;;23.07;56.38;101734.94;5057081;28;20374;-71
2023/06/26 09:11:33;;;;;;;3.95;1.73;;;;;;;23.67;55.20;101735.75;5051582;28;20063;-72
2023/06/26 09:13:59;;;;;;;8.77;1.83;;;;;;;23.78;53.98;101734.78;5055353;28;20024;-71
2023/06/26 09:16:29;;;;;;;5.07;1.90;;;;;;;24.22;54.10;101739.22;5053235;28;20021;-72
2023/06/26 09:18:56;;;;;;;9.38;2.08;;;;;;;24.63;53.43;101741.28;5033104;28;20029;-72
2023/06/26 09:21:24;;;;;;;9.40;2.40;;;;;;;24.70;52.18;101758.72;5037147;28;20035;-72
2023/06/26 09:23:52;;;;;;;8.82;1.73;;;;;;;24.41;51.40;101757.31;5032617;28;20474;-72
2023/06/26 09:26:17;;;;;;;11.38;1.88;;;;;;;24.43;50.39;101758.72;5048611;28;20086;-71
2023/06/26 09:28:43;;;;;;;5.27;1.67;;;;;;;24.36;51.33;101768.47;5038935;28;20032;-71
2023/06/26 09:31:10;;;;;;;10.03;1.73;;;;;;;24.75;50.86;101758.78;5039038;28;20036;-71
2023/06/26 09:33:37;;;;;;;7.75;1.75;;;;;;;24.53;51.67;101760.78;5053613;28;20024;-71
2023/06/26 09:36:18;;;;;;;5.95;1.80;;;;;;;24.78;50.23;101756.28;5058730;28;20434;-71
2023/06/26 09:38:44;;;;;;;10.05;2.20;;;;;;;24.79;50.13;101771.13;5054564;28;20021;-71
2023/06/26 09:41:09;;;;;;;5.93;2.27;;;;;;;24.45;51.41;101766.88;5054475;28;20561;-71
2023/06/26 09:43:45;;;;;;;9.17;1.37;;;;;;;24.34;50.72;101765.09;5052231;28;20025;-72
2023/06/26 09:46:15;;;;;;;9.50;2.03;;;;;;;24.70;50.68;101770.78;5055376;28;20035;-72
2023/06/26 09:48:41;;;;;;;8.85;2.25;;;;;;;24.68;50.63;101774.94;5033923;28;20060;-71
2023/06/26 09:51:06;;;;;;;7.30;1.83;;;;;;;25.05;49.29;101782.25;5052480;28;20059;-71
2023/06/26 09:53:35;;;;;;;5.77;2.13;;;;;;;24.78;50.48;101791.84;5052082;28;20086;-71
2023/06/26 09:56:05;;;;;;;14.63;1.75;;;;;;;25.27;49.23;101796.16;5036669;28;20056;-71
2023/06/26 09:58:33;;;;;;;7.75;1.70;;;;;;;25.29;48.54;101799.56;5056887;28;20086;-71
2023/06/26 10:00:58;;;;;;;4.38;1.70;;;;;;;25.09;49.30;101799.41;5053521;28;20055;-71
2023/06/26 10:03:24;;;;;;;10.47;2.20;;;;;;;24.60;50.13;101803.47;5050040;28;20086;-71
2023/06/26 10:05:50;;;;;;;3.80;1.40;;;;;;;24.95;50.01;101803.75;5040428;28;22512;-71
2023/06/26 10:08:17;;;;;;;4.57;1.88;;;;;;;24.91;49.46;101808.25;5050835;28;20028;-71
2023/06/26 10:10:44;;;;;;;8.15;2.47;;;;;;;24.75;50.29;101810.06;5050829;28;20025;-72
2023/06/26 10:13:21;;;;;;;13.45;2.03;;;;;;;25.43;48.96;101809.19;5050252;28;20025;-71
2023/06/26 10:15:49;;;;;;;;;;;;;;;25.10;48.67;101817.91;5052901;28;20498;-72
2023/06/26 10:18:17;;;;;;;12.93;1.90;;;;;;;25.90;47.91;101826.81;5046809;28;20269;-72
2023/06/26 10:20:47;;;;;;;9.18;1.88;;;;;;;25.21;48.69;101823.31;5049924;28;20033;-72
2023/06/26 10:23:14;;;;;;;5.72;1.70;;;;;;;25.18;49.43;101821.06;5021619;28;20099;-72
2023/06/26 10:25:42;;;;;;;9.20;1.85;;;;;;;25.38;49.91;101823.16;5047972;28;20039;-72
2023/06/26 10:28:11;;;;;;;13.05;2.03;;;;;;;25.75;48.14;101823.94;5032854;28;20024;-72
2023/06/26 10:30:38;;;;;;;7.05;1.75;;;;;;;25.13;49.02;101811.78;5047686;28;20024;-72
2023/06/26 10:33:05;;;;;;;7.55;2.35;;;;;;;25.12;49.42;101826.91;5052422;28;20104;-72
2023/06/26 10:35:31;;;;;;;5.32;1.98;;;;;;;24.80;48.83;101826.91;5048887;28;20104;-71
2023/06/26 10:38:06;;;;;;;16.83;1.92;;;;;;;24.65;49.66;101823.97;5032377;28;20071;-71
2023/06/26 10:40:41;;;;;;;13.43;2.33;;;;;;;24.90;49.00;101823.34;5052540;28;20536;-72
2023/06/26 10:43:11;;;;;;;7.65;1.77;;;;;;;24.85;49.47;101828.91;5048157;28;20017;-72
2023/06/26 10:45:42;;;;;;;7.00;1.73;;;;;;;25.25;48.59;101834.88;5020462;28;20033;-72
2023/06/26 10:48:07;;;;;;;8.93;1.88;;;;;;;25.64;48.10;101841.84;5034669;28;20029;-72
2023/06/26 10:50:37;;;;;;;10.07;1.97;;;;;;;25.32;47.57;101853.19;5028857;28;20438;-71
2023/06/26 10:53:14;;;;;;;9.13;1.52;;;;;;;24.77;48.16;101844.28;5054748;28;20404;-72
2023/06/26 10:55:48;;;;;;;6.70;1.60;;;;;;;24.85;48.34;101823.31;5045006;28;20524;-72
2023/06/26 10:58:41;;;;;;;3.70;1.33;;;;;;;24.73;48.07;101831.06;5034347;28;20036;-71
2023/06/26 11:01:15;;;;;;;6.30;1.52;;;;;;;24.85;47.38;101842.94;5053602;28;20033;-72
2023/06/26 11:04:03;;;;;;;3.30;1.30;;;;;;;24.84;46.85;101849.66;5029577;28;20036;-71
2023/06/26 11:06:30;;;;;;;5.95;1.40;;;;;;;25.56;44.87;101862.03;5047079;28;20031;-71
2023/06/26 11:09:04;;;;;;;8.00;1.98;;;;;;;25.20;44.22;101860.06;5029240;28;20028;-71
2023/06/26 11:11:52;;;;;;;6.40;2.00;;;;;;;25.64;43.09;101853.09;5044986;28;20037;-71
2023/06/26 11:14:18;;;;;;;;;;;;;;;26.22;42.10;101859.28;5036328;28;20024;-71
2023/06/26 11:16:43;;;;;;;8.70;1.42;;;;;;;26.17;41.34;101850.00;5054101;28;20331;-71
2023/06/26 11:19:13;;;;;;;5.90;1.50;;;;;;;24.97;43.72;101863.25;5045369;28;20094;-72
2023/06/26 11:21:39;;;;;;;8.90;1.65;;;;;;;25.39;43.07;101865.00;5054882;28;20035;-73